Time;durP1;ratioP1;P1;durP2;ratioP2;P2;SDS_P1;SDS_P2;PMS_P1;PMS_P2;Temp;Humidity;BMP_temperature;BMP_pressure;BME280_temperature;BME280_humidity;BME280_pressure;Samples;Min_cycle;Max_cycle;Signal;HPM_P1;HPM_P2
2021/10/03 05:01:14;;;;;;;1999.90;999.90;;;;;;;;;;5730521;23;20243;-70
2021/10/03 05:03:59;;;;;;;1999.90;999.90;;;;;;;;;;4974319;28;20561;-68
2021/10/03 05:06:44;;;;;;;1999.90;999.90;;;;;;;;;;4974279;28;20219;-71
2021/10/03 05:09:29;;;;;;;1999.90;999.90;;;;;;;;;;4974050;28;20203;-71
2021/10/03 05:12:13;;;;;;;1999.90;999.90;;;;;;;;;;4974090;28;20231;-70
2021/10/03 05:14:58;;;;;;;1999.90;999.90;;;;;;;;;;4973483;28;20686;-70
2021/10/03 05:17:44;;;;;;;1999.90;999.90;;;;;;;;;;4974045;28;20336;-70
2021/10/03 05:20:29;;;;;;;1999.90;999.90;;;;;;;;;;4973873;28;20207;-71
2021/10/03 05:23:14;;;;;;;1999.90;999.90;;;;;;;;;;4973742;28;20319;-71
2021/10/03 05:26:01;;;;;;;1999.90;999.90;;;;;;;;;;4973030;28;20336;-70
2021/10/03 05:28:46;;;;;;;1999.90;999.90;;;;;;;;;;4973389;28;20300;-70
2021/10/03 05:31:31;;;;;;;1999.90;999.90;;;;;;;;;;4973784;28;20318;-70
2021/10/03 05:34:17;;;;;;;1999.90;999.90;;;;;;;;;;4973092;28;20208;-70
2021/10/03 05:37:02;;;;;;;1999.90;999.90;;;;;;;;;;4974013;28;20215;-69
2021/10/03 05:39:47;;;;;;;1999.90;999.90;;;;;;;;;;4973702;28;20227;-69
2021/10/03 05:42:32;;;;;;;1999.90;999.90;;;;;;;;;;4973416;28;20357;-71
2021/10/03 05:45:17;;;;;;;1999.90;999.90;;;;;;;;;;4972864;28;20212;-70
2021/10/03 05:48:02;;;;;;;1999.90;999.90;;;;;;;;;;4973228;28;20208;-69
2021/10/03 05:50:48;;;;;;;1999.90;999.90;;;;;;;;;;4973435;28;20291;-70
2021/10/03 05:53:34;;;;;;;1999.90;999.90;;;;;;;;;;4973863;28;20200;-71
2021/10/03 05:56:19;;;;;;;1999.90;999.90;;;;;;;;;;4972833;28;20722;-71
2021/10/03 05:59:04;;;;;;;1999.90;999.90;;;;;;;;;;4973328;28;20705;-70
2021/10/03 06:01:49;;;;;;;1999.90;999.90;;;;;;;;;;4973016;28;20336;-71
2021/10/03 06:04:34;;;;;;;1999.90;999.90;;;;;;;;;;4972543;28;20706;-70
2021/10/03 06:07:20;;;;;;;1999.90;999.90;;;;;;;;;;4972878;28;20291;-70
2021/10/03 06:10:07;;;;;;;1999.90;999.90;;;;;;;;;;4973145;28;20562;-70
2021/10/03 06:12:52;;;;;;;1999.90;999.90;;;;;;;;;;4973123;28;20208;-70
2021/10/03 06:15:39;;;;;;;1999.90;999.90;;;;;;;;;;4972303;28;20204;-71
2021/10/03 06:18:24;;;;;;;1999.90;999.90;;;;;;;;;;4972761;28;20214;-71
2021/10/03 06:21:13;;;;;;;1999.90;999.90;;;;;;;;;;4972623;28;20355;-70
2021/10/03 06:23:59;;;;;;;1999.90;999.90;;;;;;;;;;4972639;28;20220;-72
2021/10/03 06:26:47;;;;;;;1999.90;999.90;;;;;;;;;;4972697;28;20597;-70
2021/10/03 06:29:32;;;;;;;1999.90;999.90;;;;;;;;;;4972776;28;20228;-71
2021/10/03 06:32:17;;;;;;;1999.90;999.90;;;;;;;;;;4972936;28;20266;-70
2021/10/03 06:35:02;;;;;;;1999.90;999.90;;;;;;;;;;4971795;28;20220;-69
2021/10/03 06:37:47;;;;;;;1999.90;999.90;;;;;;;;;;4972977;28;20332;-70
2021/10/03 06:40:33;;;;;;;1999.90;999.90;;;;;;;;;;4971986;28;20215;-69
2021/10/03 06:43:18;;;;;;;1999.90;999.90;;;;;;;;;;4972575;28;20549;-70
2021/10/03 06:46:03;;;;;;;1999.90;999.90;;;;;;;;;;4972136;28;20598;-71
2021/10/03 06:48:48;;;;;;;1999.90;999.90;;;;;;;;;;4972857;28;20379;-69
2021/10/03 06:51:33;;;;;;;1999.90;999.90;;;;;;;;;;4972614;28;20353;-70
2021/10/03 06:54:18;;;;;;;1999.90;999.90;;;;;;;;;;4970988;28;20477;-70
2021/10/03 06:57:05;;;;;;;1999.90;999.90;;;;;;;;;;4972559;28;20208;-70
2021/10/03 06:59:50;;;;;;;1999.90;999.90;;;;;;;;;;4972575;28;20203;-72
2021/10/03 07:02:35;;;;;;;1999.90;999.90;;;;;;;;;;4972189;28;20322;-69
2021/10/03 07:05:20;;;;;;;1999.90;999.90;;;;;;;;;;4971790;28;20219;-71
2021/10/03 07:08:05;;;;;;;1999.90;999.90;;;;;;;;;;4972468;28;20211;-69
2021/10/03 07:10:51;;;;;;;1999.90;999.90;;;;;;;;;;4972352;28;20314;-71
2021/10/03 07:13:37;;;;;;;1999.90;999.90;;;;;;;;;;4972346;28;20693;-70
2021/10/03 07:16:22;;;;;;;1999.90;999.90;;;;;;;;;;4971411;28;20212;-69
2021/10/03 07:19:07;;;;;;;1999.90;999.90;;;;;;;;;;4972638;28;20700;-69
2021/10/03 07:21:52;;;;;;;1999.90;999.90;;;;;;;;;;4972223;28;20251;-69
2021/10/03 07:24:38;;;;;;;1999.90;999.90;;;;;;;;;;4971435;28;20689;-69
2021/10/03 07:27:23;;;;;;;1999.90;999.90;;;;;;;;;;4971861;28;20208;-69
2021/10/03 07:30:09;;;;;;;1999.90;999.90;;;;;;;;;;4971982;28;20589;-69
2021/10/03 07:32:54;;;;;;;1999.90;999.90;;;;;;;;;;4972013;28;20208;-69
2021/10/03 07:35:39;;;;;;;1999.90;999.90;;;;;;;;;;4971057;28;20225;-69
2021/10/03 07:38:24;;;;;;;1999.90;999.90;;;;;;;;;;4971749;28;20206;-69
2021/10/03 07:41:08;;;;;;;1999.90;999.90;;;;;;;;;;4971784;28;20226;-69
2021/10/03 07:43:54;;;;;;;1999.90;999.90;;;;;;;;;;4971632;28;20332;-70
2021/10/03 07:46:40;;;;;;;1999.90;999.90;;;;;;;;;;4971701;28;20216;-68
2021/10/03 07:49:25;;;;;;;1999.90;999.90;;;;;;;;;;4971567;28;20262;-69
2021/10/03 07:52:10;;;;;;;1999.90;999.90;;;;;;;;;;4973902;28;20226;-69
2021/10/03 07:54:56;;;;;;;1999.90;999.90;;;;;;;;;;4974942;28;20236;-69
2021/10/03 07:57:41;;;;;;;1999.90;999.90;;;;;;;;;;4975598;28;20235;-69
2021/10/03 08:00:25;;;;;;;1999.90;999.90;;;;;;;;;;4975075;28;20226;-70
2021/10/03 08:03:12;;;;;;;1999.90;999.90;;;;;;;;;;4975477;28;20231;-69
2021/10/03 08:05:57;;;;;;;1999.90;999.90;;;;;;;;;;4974764;28;20220;-69
2021/10/03 08:08:42;;;;;;;1999.90;999.90;;;;;;;;;;4974452;28;20934;-70
2021/10/03 08:11:27;;;;;;;1999.90;999.90;;;;;;;;;;4975539;28;20231;-70
2021/10/03 08:14:12;;;;;;;1999.90;999.90;;;;;;;;;;4974496;28;20209;-69
2021/10/03 08:16:57;;;;;;;1999.90;999.90;;;;;;;;;;4975211;28;20215;-69
2021/10/03 08:19:43;;;;;;;1999.90;999.90;;;;;;;;;;4975171;28;20215;-69
2021/10/03 08:22:29;;;;;;;1999.90;999.90;;;;;;;;;;4974630;28;20296;-69
2021/10/03 08:25:14;;;;;;;1999.90;999.90;;;;;;;;;;4974446;28;20298;-68
2021/10/03 08:27:59;;;;;;;1999.90;999.90;;;;;;;;;;4975015;28;20222;-69
2021/10/03 08:30:43;;;;;;;1999.90;999.90;;;;;;;;;;4974959;28;20234;-68
2021/10/03 08:33:28;;;;;;;1999.90;999.90;;;;;;;;;;4973602;28;20472;-69
2021/10/03 08:36:15;;;;;;;1999.90;999.90;;;;;;;;;;4974103;28;20338;-69
2021/10/03 08:39:00;;;;;;;1999.90;999.90;;;;;;;;;;4975012;28;20266;-69
2021/10/03 08:41:46;;;;;;;1999.90;999.90;;;;;;;;;;4974656;28;20585;-69
2021/10/03 08:44:31;;;;;;;1999.90;999.90;;;;;;;;;;4973717;28;20221;-69
2021/10/03 08:47:16;;;;;;;1999.90;999.90;;;;;;;;;;4974765;28;20308;-69
2021/10/03 08:50:03;;;;;;;1999.90;999.90;;;;;;;;;;4974603;28;20215;-70
2021/10/03 08:52:49;;;;;;;1999.90;999.90;;;;;;;;;;4974592;28;20260;-69
2021/10/03 08:55:34;;;;;;;1999.90;999.90;;;;;;;;;;4973874;28;20764;-69
2021/10/03 08:58:19;;;;;;;1999.90;999.90;;;;;;;;;;4974412;28;20238;-69
2021/10/03 09:01:05;;;;;;;1999.90;999.90;;;;;;;;;;4973331;28;20930;-69
2021/10/03 09:03:55;;;;;;;1999.90;999.90;;;;;;;;;;4973597;28;20230;-69
2021/10/03 09:06:55;;;;;;;1999.90;999.90;;;;;;;;;;4974323;28;20202;-69
2021/10/03 09:09:52;;;;;;;1999.90;999.90;;;;;;;;;;4974301;28;20331;-69
2021/10/03 09:12:38;;;;;;;1999.90;999.90;;;;;;;;;;4974181;28;20786;-69
2021/10/03 09:15:23;;;;;;;1999.90;999.90;;;;;;;;;;4973492;28;20335;-69
2021/10/03 09:18:08;;;;;;;1999.90;999.90;;;;;;;;;;4974166;28;20211;-69
2021/10/03 09:20:54;;;;;;;1999.90;999.90;;;;;;;;;;4974041;28;20233;-69
2021/10/03 09:23:39;;;;;;;1999.90;999.90;;;;;;;;;;4973509;28;20469;-69
2021/10/03 09:26:25;;;;;;;1999.90;999.90;;;;;;;;;;4973762;28;20341;-69
2021/10/03 09:29:21;;;;;;;1999.90;999.90;;;;;;;;;;4974116;28;20701;-69
2021/10/03 09:32:06;;;;;;;1999.90;999.90;;;;;;;;;;4973837;28;20281;-69
2021/10/03 09:34:53;;;;;;;1999.90;999.90;;;;;;;;;;4973078;28;20292;-69
2021/10/03 09:37:39;;;;;;;1999.90;999.90;;;;;;;;;;4973855;28;20218;-71
2021/10/03 09:40:24;;;;;;;1999.90;999.90;;;;;;;;;;4973546;28;20213;-69
2021/10/03 09:43:12;;;;;;;1999.90;999.90;;;;;;;;;;4973634;28;20571;-69
2021/10/03 09:45:57;;;;;;;1999.90;999.90;;;;;;;;;;4973178;28;20210;-70
2021/10/03 09:48:47;;;;;;;1999.90;999.90;;;;;;;;;;4972518;28;20485;-69
2021/10/03 09:51:32;;;;;;;1999.90;999.90;;;;;;;;;;4973211;28;20231;-69
2021/10/03 09:54:18;;;;;;;1999.90;999.90;;;;;;;;;;4972763;28;20268;-69
2021/10/03 09:57:03;;;;;;;1999.90;999.90;;;;;;;;;;4973437;28;20583;-69
2021/10/03 09:59:49;;;;;;;1999.90;999.90;;;;;;;;;;4973467;28;20211;-68
2021/10/03 10:02:35;;;;;;;1999.90;999.90;;;;;;;;;;4973142;28;20239;-69
2021/10/03 10:05:21;;;;;;;1999.90;999.90;;;;;;;;;;4972675;28;20254;-69
2021/10/03 10:08:06;;;;;;;1999.90;999.90;;;;;;;;;;4973300;28;20211;-68
2021/10/03 10:10:53;;;;;;;1999.90;999.90;;;;;;;;;;4973153;28;20259;-68
2021/10/03 10:13:39;;;;;;;1999.90;999.90;;;;;;;;;;4973160;28;20211;-68
2021/10/03 10:16:33;;;;;;;1999.90;999.90;;;;;;;;;;4971954;28;20234;-69
2021/10/03 10:19:28;;;;;;;1999.90;999.90;;;;;;;;;;4972766;28;20258;-68
2021/10/03 10:22:29;;;;;;;1999.90;999.90;;;;;;;;;;4972911;28;20604;-68
2021/10/03 10:25:18;;;;;;;1999.90;999.90;;;;;;;;;;4971907;28;20230;-70
2021/10/03 10:28:06;;;;;;;1999.90;999.90;;;;;;;;;;4972876;28;20212;-69
2021/10/03 10:31:07;;;;;;;1999.90;999.90;;;;;;;;;;4972854;28;20231;-68
2021/10/03 10:34:10;;;;;;;1999.90;999.90;;;;;;;;;;4972745;28;20347;-67
2021/10/03 10:36:56;;;;;;;1999.90;999.90;;;;;;;;;;4972710;28;20194;-69
2021/10/03 10:39:41;;;;;;;1999.90;999.90;;;;;;;;;;4972962;28;20196;-68
2021/10/03 10:42:26;;;;;;;1999.90;999.90;;;;;;;;;;4972504;28;20234;-69
2021/10/03 10:45:25;;;;;;;1999.90;999.90;;;;;;;;;;4971529;28;20228;-69
2021/10/03 10:59:02;;;;;;;1999.90;999.90;;;;;;;;;;5043921;28;20954;-67
2021/10/03 11:01:48;;;;;;;1999.90;999.90;;;;;;;;;;5043361;28;20555;-68
2021/10/03 11:04:33;;;;;;;1999.90;999.90;;;;;;;;;;5043524;28;20301;-70
2021/10/03 11:07:18;;;;;;;1999.90;999.90;;;;;;;;;;5043688;28;20217;-68
2021/10/03 11:10:03;;;;;;;1999.90;999.90;;;;;;;;;;5044039;28;20752;-66
2021/10/03 11:12:48;;;;;;;1999.90;999.90;;;;;;;;;;5044189;28;20205;-67
2021/10/03 11:15:35;;;;;;;1999.90;999.90;;;;;;;;;;5043473;28;20982;-67
2021/10/03 11:18:22;;;;;;;1999.90;999.90;;;;;;;;;;5043853;28;20224;-67
2021/10/03 11:21:07;;;;;;;1999.90;999.90;;;;;;;;;;5044010;28;20233;-68
2021/10/03 11:23:52;;;;;;;1999.90;999.90;;;;;;;;;;5043988;28;20695;-67
2021/10/03 11:26:48;;;;;;;1999.90;999.90;;;;;;;;;;5043774;28;20221;-68
2021/10/03 11:29:33;;;;;;;1999.90;999.90;;;;;;;;;;5044156;28;20229;-68
2021/10/03 11:32:19;;;;;;;1999.90;999.90;;;;;;;;;;5043735;28;20600;-69
2021/10/03 11:35:07;;;;;;;1999.90;999.90;;;;;;;;;;5042877;28;20206;-68
2021/10/03 11:37:53;;;;;;;1999.90;999.90;;;;;;;;;;5043905;28;20575;-67
2021/10/03 11:40:38;;;;;;;1999.90;999.90;;;;;;;;;;5043673;28;20228;-67
2021/10/03 11:43:32;;;;;;;1999.90;999.90;;;;;;;;;;5043674;28;20582;-68
2021/10/03 11:46:19;;;;;;;1999.90;999.90;;;;;;;;;;5042903;28;20202;-68
2021/10/03 11:49:03;;;;;;;1999.90;999.90;;;;;;;;;;5043875;28;20582;-67
2021/10/03 11:51:50;;;;;;;1999.90;999.90;;;;;;;;;;5043079;28;20448;-68
2021/10/03 11:54:36;;;;;;;1999.90;999.90;;;;;;;;;;5043162;28;20202;-69
2021/10/03 11:57:27;;;;;;;1999.90;999.90;;;;;;;;;;5043508;28;20210;-68
2021/10/03 12:00:17;;;;;;;1999.90;999.90;;;;;;;;;;5030211;28;20641;-68
2021/10/03 12:03:05;;;;;;;1999.90;999.90;;;;;;;;;;5030193;28;20206;-68
2021/10/03 12:05:49;;;;;;;1999.90;999.90;;;;;;;;;;5029644;28;20252;-69
2021/10/03 12:08:39;;;;;;;1999.90;999.90;;;;;;;;;;5030104;28;20213;-69
2021/10/03 12:11:24;;;;;;;1999.90;999.90;;;;;;;;;;5030074;28;20221;-68
2021/10/03 12:14:09;;;;;;;1999.90;999.90;;;;;;;;;;5029561;28;20287;-68
2021/10/03 12:16:56;;;;;;;1999.90;999.90;;;;;;;;;;5028699;28;20405;-68
2021/10/03 12:19:56;;;;;;;1999.90;999.90;;;;;;;;;;5030100;28;20206;-68
2021/10/03 12:22:51;;;;;;;1999.90;999.90;;;;;;;;;;5029730;28;20355;-68
2021/10/03 12:25:40;;;;;;;1999.90;999.90;;;;;;;;;;5029149;28;20287;-68
2021/10/03 12:28:25;;;;;;;1999.90;999.90;;;;;;;;;;5029261;28;20222;-68
2021/10/03 12:31:10;;;;;;;1999.90;999.90;;;;;;;;;;5029710;28;20225;-68
2021/10/03 12:33:55;;;;;;;1999.90;999.90;;;;;;;;;;5029522;28;20213;-68
2021/10/03 12:36:40;;;;;;;1999.90;999.90;;;;;;;;;;5029353;28;20202;-68
2021/10/03 12:39:26;;;;;;;1999.90;999.90;;;;;;;;;;5029532;28;20206;-69
2021/10/03 12:42:13;;;;;;;1999.90;999.90;;;;;;;;;;5029523;28;20619;-69
2021/10/03 12:45:00;;;;;;;1999.90;999.90;;;;;;;;;;5028765;28;20575;-68
2021/10/03 12:47:45;;;;;;;1999.90;999.90;;;;;;;;;;5029216;28;20299;-68
2021/10/03 12:50:30;;;;;;;1999.90;999.90;;;;;;;;;;5029204;28;20206;-69
2021/10/03 12:53:17;;;;;;;1999.90;999.90;;;;;;;;;;5029053;28;20222;-68
2021/10/03 12:56:02;;;;;;;1999.90;999.90;;;;;;;;;;5028609;28;20210;-68
2021/10/03 12:58:48;;;;;;;1999.90;999.90;;;;;;;;;;5029227;28;20344;-68
2021/10/03 13:01:33;;;;;;;1999.90;999.90;;;;;;;;;;5029123;28;20226;-69
2021/10/03 13:04:18;;;;;;;1999.90;999.90;;;;;;;;;;5028203;28;20481;-69
2021/10/03 13:07:03;;;;;;;1999.90;999.90;;;;;;;;;;5029090;28;20479;-69
2021/10/03 13:09:48;;;;;;;1999.90;999.90;;;;;;;;;;5027894;28;20210;-69
2021/10/03 13:12:33;;;;;;;1999.90;999.90;;;;;;;;;;5028849;28;20291;-69
2021/10/03 13:15:19;;;;;;;1999.90;999.90;;;;;;;;;;5028203;28;20210;-69
2021/10/03 13:18:04;;;;;;;1999.90;999.90;;;;;;;;;;5028905;28;20616;-69
2021/10/03 13:20:49;;;;;;;1999.90;999.90;;;;;;;;;;5029173;28;20589;-69
2021/10/03 13:23:36;;;;;;;1999.90;999.90;;;;;;;;;;5028804;28;20307;-68
2021/10/03 13:26:21;;;;;;;1999.90;999.90;;;;;;;;;;5028226;28;20236;-69
2021/10/03 13:29:06;;;;;;;1999.90;999.90;;;;;;;;;;5027415;28;20488;-69
2021/10/03 13:31:53;;;;;;;1999.90;999.90;;;;;;;;;;5028369;28;20222;-68
2021/10/03 13:34:38;;;;;;;1999.90;999.90;;;;;;;;;;5027649;28;20210;-69
2021/10/03 13:37:22;;;;;;;1999.90;999.90;;;;;;;;;;5028609;28;20238;-69
2021/10/03 13:40:08;;;;;;;1999.90;999.90;;;;;;;;;;5028495;28;20695;-69
2021/10/03 13:42:52;;;;;;;1999.90;999.90;;;;;;;;;;5028529;28;20285;-69
2021/10/03 13:45:37;;;;;;;1999.90;999.90;;;;;;;;;;5027861;28;20298;-70
2021/10/03 13:48:24;;;;;;;1999.90;999.90;;;;;;;;;;5028054;28;20290;-68
2021/10/03 13:51:09;;;;;;;1999.90;999.90;;;;;;;;;;5028326;28;20225;-68
2021/10/03 13:53:54;;;;;;;1999.90;999.90;;;;;;;;;;5028617;28;20271;-68
2021/10/03 13:56:39;;;;;;;1999.90;999.90;;;;;;;;;;5028181;28;20214;-68
2021/10/03 13:59:23;;;;;;;1999.90;999.90;;;;;;;;;;5028349;28;20559;-69
2021/10/03 14:02:08;;;;;;;1999.90;999.90;;;;;;;;;;5028084;28;20310;-68
2021/10/03 14:04:54;;;;;;;1999.90;999.90;;;;;;;;;;5027931;28;20682;-68
2021/10/03 14:07:39;;;;;;;1999.90;999.90;;;;;;;;;;5028052;28;20227;-68
2021/10/03 14:10:25;;;;;;;1999.90;999.90;;;;;;;;;;5027738;28;20208;-69
2021/10/03 14:13:10;;;;;;;1999.90;999.90;;;;;;;;;;5028188;28;20270;-69
2021/10/03 14:15:55;;;;;;;1999.90;999.90;;;;;;;;;;5027346;28;20212;-69
2021/10/03 14:18:41;;;;;;;1999.90;999.90;;;;;;;;;;5027573;28;20553;-69
2021/10/03 14:21:27;;;;;;;1999.90;999.90;;;;;;;;;;5027653;28;20233;-69
2021/10/03 14:24:12;;;;;;;1999.90;999.90;;;;;;;;;;5027242;28;20298;-69
2021/10/03 14:26:57;;;;;;;1999.90;999.90;;;;;;;;;;5027843;28;20293;-69
2021/10/03 14:29:44;;;;;;;1999.90;999.90;;;;;;;;;;5027913;28;20212;-69
2021/10/03 14:32:29;;;;;;;1999.90;999.90;;;;;;;;;;5027653;28;20220;-68
2021/10/03 14:35:14;;;;;;;1999.90;999.90;;;;;;;;;;5027127;28;20572;-69
2021/10/03 14:38:00;;;;;;;1999.90;999.90;;;;;;;;;;5027758;28;20330;-68
2021/10/03 14:40:46;;;;;;;1999.90;999.90;;;;;;;;;;5027565;28;20282;-69
2021/10/03 14:43:33;;;;;;;1999.90;999.90;;;;;;;;;;5026380;28;20398;-69
2021/10/03 14:46:18;;;;;;;1999.90;999.90;;;;;;;;;;5027055;28;20668;-69
2021/10/03 14:49:03;;;;;;;1999.90;999.90;;;;;;;;;;5027339;28;20340;-69
2021/10/03 14:51:48;;;;;;;1999.90;999.90;;;;;;;;;;5027532;28;20717;-69
2021/10/03 14:54:37;;;;;;;1999.90;999.90;;;;;;;;;;5026810;28;20254;-69
2021/10/03 14:57:22;;;;;;;1999.90;999.90;;;;;;;;;;5027498;28;20255;-69
2021/10/03 15:00:07;;;;;;;1999.90;999.90;;;;;;;;;;5027475;28;20233;-69
2021/10/03 15:02:52;;;;;;;1999.90;999.90;;;;;;;;;;5027176;28;20205;-69
2021/10/03 15:05:37;;;;;;;1999.90;999.90;;;;;;;;;;5026656;28;20278;-69
2021/10/03 15:08:22;;;;;;;1999.90;999.90;;;;;;;;;;5027101;28;20233;-69
2021/10/03 15:11:08;;;;;;;1999.90;999.90;;;;;;;;;;5027268;28;20225;-69
2021/10/03 15:13:54;;;;;;;1999.90;999.90;;;;;;;;;;5027105;28;20340;-68
2021/10/03 15:16:39;;;;;;;1999.90;999.90;;;;;;;;;;5027175;28;20679;-68
2021/10/03 15:19:24;;;;;;;1999.90;999.90;;;;;;;;;;5027337;28;20204;-68
2021/10/03 15:22:09;;;;;;;1999.90;999.90;;;;;;;;;;5027057;28;20233;-69
2021/10/03 15:24:54;;;;;;;1999.90;999.90;;;;;;;;;;5026476;28;20207;-69
2021/10/03 15:27:40;;;;;;;1999.90;999.90;;;;;;;;;;5027072;28;20222;-69
2021/10/03 15:30:25;;;;;;;1999.90;999.90;;;;;;;;;;5026974;28;20217;-68
2021/10/03 15:33:10;;;;;;;1999.90;999.90;;;;;;;;;;5027672;28;20590;-69
2021/10/03 15:35:55;;;;;;;1999.90;999.90;;;;;;;;;;5029741;28;20213;-68
2021/10/03 15:38:40;;;;;;;1999.90;999.90;;;;;;;;;;5030308;28;20213;-68
2021/10/03 15:41:24;;;;;;;1999.90;999.90;;;;;;;;;;5030295;28;20843;-69
2021/10/03 15:44:11;;;;;;;1999.90;999.90;;;;;;;;;;5029637;28;20577;-70
2021/10/03 15:46:56;;;;;;;1999.90;999.90;;;;;;;;;;5030838;28;20699;-69
2021/10/03 15:49:42;;;;;;;1999.90;999.90;;;;;;;;;;5030662;28;20236;-69
2021/10/03 15:52:27;;;;;;;1999.90;999.90;;;;;;;;;;5029823;28;20375;-69
2021/10/03 15:55:12;;;;;;;1999.90;999.90;;;;;;;;;;5029539;28;20206;-69
2021/10/03 15:57:57;;;;;;;1999.90;999.90;;;;;;;;;;5028940;28;20839;-69
2021/10/03 16:00:44;;;;;;;1999.90;999.90;;;;;;;;;;5030028;28;20760;-69
2021/10/03 16:03:29;;;;;;;1999.90;999.90;;;;;;;;;;5030070;28;20213;-69
2021/10/03 16:06:13;;;;;;;1999.90;999.90;;;;;;;;;;5029021;28;20731;-68
2021/10/03 16:08:58;;;;;;;1999.90;999.90;;;;;;;;;;5029776;28;20296;-68
2021/10/03 16:11:43;;;;;;;1999.90;999.90;;;;;;;;;;5029745;28;20824;-68
2021/10/03 16:14:29;;;;;;;1999.90;999.90;;;;;;;;;;5029132;28;20687;-68
2021/10/03 16:17:15;;;;;;;1999.90;999.90;;;;;;;;;;5029862;28;20340;-68
2021/10/03 16:20:00;;;;;;;1999.90;999.90;;;;;;;;;;5030452;28;20202;-68
2021/10/03 16:22:45;;;;;;;1999.90;999.90;;;;;;;;;;5029915;28;20275;-68
2021/10/03 16:25:30;;;;;;;1999.90;999.90;;;;;;;;;;5029035;28;20290;-68
2021/10/03 16:28:15;;;;;;;1999.90;999.90;;;;;;;;;;5029557;28;20306;-68
2021/10/03 16:31:00;;;;;;;1999.90;999.90;;;;;;;;;;5029474;28;20255;-68
2021/10/03 16:33:47;;;;;;;1999.90;999.90;;;;;;;;;;5029672;28;20324;-68
2021/10/03 16:36:31;;;;;;;1999.90;999.90;;;;;;;;;;5029196;28;20208;-68
2021/10/03 16:39:16;;;;;;;1999.90;999.90;;;;;;;;;;5029507;28;20346;-67
2021/10/03 16:42:01;;;;;;;1999.90;999.90;;;;;;;;;;5029471;28;20236;-68
2021/10/03 16:44:46;;;;;;;1999.90;999.90;;;;;;;;;;5028738;28;20237;-68
2021/10/03 16:47:31;;;;;;;1999.90;999.90;;;;;;;;;;5029381;28;20204;-68
2021/10/03 16:50:18;;;;;;;1999.90;999.90;;;;;;;;;;5029322;28;20205;-68
2021/10/03 16:53:03;;;;;;;1999.90;999.90;;;;;;;;;;5029311;28;20206;-68
2021/10/03 16:55:48;;;;;;;1999.90;999.90;;;;;;;;;;5014765;28;20260;-68
2021/10/03 16:58:34;;;;;;;1999.90;999.90;;;;;;;;;;5021425;28;20682;-68
2021/10/03 17:01:19;;;;;;;1999.90;999.90;;;;;;;;;;5029230;28;20225;-67
2021/10/03 17:04:04;;;;;;;1999.90;999.90;;;;;;;;;;5011704;28;20334;-66
2021/10/03 17:06:50;;;;;;;1999.90;999.90;;;;;;;;;;5009784;28;20278;-68
2021/10/03 17:09:35;;;;;;;1999.90;999.90;;;;;;;;;;5009112;28;20238;-69
2021/10/03 17:12:20;;;;;;;1999.90;999.90;;;;;;;;;;5009215;28;20560;-68
2021/10/03 17:15:06;;;;;;;1999.90;999.90;;;;;;;;;;5008568;28;20769;-68
2021/10/03 17:17:51;;;;;;;1999.90;999.90;;;;;;;;;;5009050;28;20213;-68
2021/10/03 17:20:36;;;;;;;1999.90;999.90;;;;;;;;;;5009051;28;20212;-68
2021/10/03 17:23:22;;;;;;;1999.90;999.90;;;;;;;;;;5009241;28;20478;-68
2021/10/03 17:26:07;;;;;;;1999.90;999.90;;;;;;;;;;5008696;28;20204;-66
2021/10/03 17:28:52;;;;;;;1999.90;999.90;;;;;;;;;;5008206;28;20715;-68
2021/10/03 17:31:37;;;;;;;1999.90;999.90;;;;;;;;;;5008334;28;20224;-66
2021/10/03 17:34:22;;;;;;;1999.90;999.90;;;;;;;;;;5008337;28;20214;-68
2021/10/03 17:37:08;;;;;;;1999.90;999.90;;;;;;;;;;5008615;28;20225;-66
2021/10/03 17:39:55;;;;;;;1999.90;999.90;;;;;;;;;;5027759;27;20346;-68
2021/10/03 17:42:40;;;;;;;1999.90;999.90;;;;;;;;;;5031229;27;20229;-68
2021/10/03 17:45:25;;;;;;;1999.90;999.90;;;;;;;;;;5047653;27;20574;-68
2021/10/03 17:48:10;;;;;;;1999.90;999.90;;;;;;;;;;5054580;27;20230;-67
2021/10/03 17:50:55;;;;;;;1999.90;999.90;;;;;;;;;;5025866;27;20271;-65
2021/10/03 17:53:40;;;;;;;1999.90;999.90;;;;;;;;;;5077504;27;20211;-67
2021/10/03 17:56:26;;;;;;;1999.90;999.90;;;;;;;;;;5064558;27;20214;-67
2021/10/03 17:59:11;;;;;;;1999.90;999.90;;;;;;;;;;5028173;27;20220;-66
2021/10/03 18:01:56;;;;;;;1999.90;999.90;;;;;;;;;;5015007;28;20241;-67
2021/10/03 18:04:41;;;;;;;1999.90;999.90;;;;;;;;;;5025798;28;20216;-68
2021/10/03 18:07:26;;;;;;;1999.90;999.90;;;;;;;;;;5021076;28;20227;-68
2021/10/03 18:10:12;;;;;;;1999.90;999.90;;;;;;;;;;5011150;28;20235;-67
2021/10/03 18:13:00;;;;;;;1999.90;999.90;;;;;;;;;;5019950;28;20220;-68
2021/10/03 18:15:45;;;;;;;1999.90;999.90;;;;;;;;;;5027176;28;20204;-68
2021/10/03 18:18:30;;;;;;;1999.90;999.90;;;;;;;;;;5027639;28;20296;-67
2021/10/03 18:21:15;;;;;;;1999.90;999.90;;;;;;;;;;5027837;28;20230;-66
2021/10/03 18:24:01;;;;;;;1999.90;999.90;;;;;;;;;;5013766;28;20222;-67
2021/10/03 18:26:46;;;;;;;1999.90;999.90;;;;;;;;;;5009510;28;20532;-67
2021/10/03 18:29:33;;;;;;;1999.90;999.90;;;;;;;;;;5010483;28;20276;-67
2021/10/03 18:32:18;;;;;;;1999.90;999.90;;;;;;;;;;5010935;28;20244;-69
2021/10/03 18:35:03;;;;;;;1999.90;999.90;;;;;;;;;;5007234;28;20208;-69
2021/10/03 18:37:49;;;;;;;1999.90;999.90;;;;;;;;;;5007958;28;20229;-67
2021/10/03 18:40:34;;;;;;;1999.90;999.90;;;;;;;;;;5007220;28;20220;-66
2021/10/03 18:43:19;;;;;;;1999.90;999.90;;;;;;;;;;5022521;28;20219;-67
2021/10/03 18:46:05;;;;;;;1999.90;999.90;;;;;;;;;;5025521;28;20215;-67
2021/10/03 18:48:50;;;;;;;1999.90;999.90;;;;;;;;;;5006389;28;20240;-67
2021/10/03 18:51:35;;;;;;;1999.90;999.90;;;;;;;;;;5010327;28;20235;-67
2021/10/03 18:54:19;;;;;;;1999.90;999.90;;;;;;;;;;5007074;28;20253;-66
2021/10/03 18:57:05;;;;;;;1999.90;999.90;;;;;;;;;;5014358;28;20220;-67
2021/10/03 18:59:50;;;;;;;1999.90;999.90;;;;;;;;;;5009765;28;20697;-66
2021/10/03 19:02:37;;;;;;;1999.90;999.90;;;;;;;;;;5007921;28;20304;-67
2021/10/03 19:05:22;;;;;;;1999.90;999.90;;;;;;;;;;5007348;28;20205;-66
2021/10/03 19:08:07;;;;;;;1999.90;999.90;;;;;;;;;;5008450;28;20700;-68
2021/10/03 19:10:52;;;;;;;1999.90;999.90;;;;;;;;;;5011363;28;20223;-67
2021/10/03 19:13:42;;;;;;;1999.90;999.90;;;;;;;;;;5027840;28;20218;-68
2021/10/03 19:16:27;;;;;;;1999.90;999.90;;;;;;;;;;5030076;28;20460;-67
2021/10/03 19:19:14;;;;;;;1999.90;999.90;;;;;;;;;;5030749;28;20207;-68
2021/10/03 19:21:59;;;;;;;1999.90;999.90;;;;;;;;;;5030721;28;20314;-69
2021/10/03 19:24:44;;;;;;;1999.90;999.90;;;;;;;;;;5019169;28;20269;-68
2021/10/03 19:27:29;;;;;;;1999.90;999.90;;;;;;;;;;5011053;28;20215;-69
2021/10/03 19:30:14;;;;;;;1999.90;999.90;;;;;;;;;;5010002;28;20234;-68
2021/10/03 19:32:59;;;;;;;1999.90;999.90;;;;;;;;;;5015934;28;20211;-68
2021/10/03 19:35:45;;;;;;;1999.90;999.90;;;;;;;;;;5013537;28;20209;-69
2021/10/03 19:38:30;;;;;;;1999.90;999.90;;;;;;;;;;5027725;28;20576;-68
2021/10/03 19:41:15;;;;;;;1999.90;999.90;;;;;;;;;;5020228;28;20226;-68
2021/10/03 19:44:01;;;;;;;1999.90;999.90;;;;;;;;;;5012357;28;20327;-67
2021/10/03 19:46:46;;;;;;;1999.90;999.90;;;;;;;;;;5026223;28;20214;-68
2021/10/03 19:49:32;;;;;;;1999.90;999.90;;;;;;;;;;5024204;28;20616;-68
2021/10/03 19:52:18;;;;;;;1999.90;999.90;;;;;;;;;;5012468;28;20611;-67
2021/10/03 19:55:03;;;;;;;1999.90;999.90;;;;;;;;;;5016525;28;20209;-68
2021/10/03 19:57:48;;;;;;;1999.90;999.90;;;;;;;;;;5021911;28;20225;-68
2021/10/03 20:00:33;;;;;;;1999.90;999.90;;;;;;;;;;5024758;28;20678;-70
2021/10/03 20:03:19;;;;;;;1999.90;999.90;;;;;;;;;;5008933;28;20214;-68
2021/10/03 20:06:04;;;;;;;1999.90;999.90;;;;;;;;;;5026315;28;20220;-68
2021/10/03 20:08:51;;;;;;;1999.90;999.90;;;;;;;;;;5008402;28;20198;-67
2021/10/03 20:11:37;;;;;;;1999.90;999.90;;;;;;;;;;5011235;28;20495;-68
2021/10/03 20:14:22;;;;;;;1999.90;999.90;;;;;;;;;;5013462;28;20699;-70
2021/10/03 20:17:06;;;;;;;1999.90;999.90;;;;;;;;;;5028628;28;20229;-70
2021/10/03 20:19:52;;;;;;;1999.90;999.90;;;;;;;;;;5011459;28;20279;-69
2021/10/03 20:22:38;;;;;;;1999.90;999.90;;;;;;;;;;5023732;28;20226;-69
2021/10/03 20:25:24;;;;;;;1999.90;999.90;;;;;;;;;;5025793;28;20202;-68
2021/10/03 20:28:10;;;;;;;1999.90;999.90;;;;;;;;;;5026824;28;20240;-69
2021/10/03 20:30:55;;;;;;;1999.90;999.90;;;;;;;;;;5019534;28;20435;-68
2021/10/03 20:33:40;;;;;;;1999.90;999.90;;;;;;;;;;5008005;28;20201;-68
2021/10/03 20:36:25;;;;;;;1999.90;999.90;;;;;;;;;;5008274;28;20223;-68